Hlavní strana
METAR-TAF:

METAR-TAF

Letiště :

Hof, Německo

zeměpisná šířka: 50-19N, zeměpisná délka: 011-53E, výška: 567 m

Aktuální stav počasí

Zpráva byla vytvořena před 20 hodinami a 32 minutami, v 14:50 UTC
Východoseverovýchodní vítr 3 kt
Teplota -2°C
Vlhkost vzduchu 69%
Tlak 1014 hPa
Viditelnost: 9000 m
Zataženo ve výšce 2100 ft

METAR: EDQM 201450Z 07003KT 9000 OVC021 M02/M07 Q1014

Čas: 12:22 (11:22 UTC)

Předpověď počasí

Zpráva byla vytvořena před 21 hodinami a 22 minutami, v 14:00 UTC
Předpověď platná od 20 v 15 UTC do 20 v 24 UTC
Východní vítr 5 kt
Viditelnost: 9000 m
Zataženo ve výšce 2000 ft
Změna
od 20 v 19 UTC do 20 v 21 UTC
Viditelnost: 4000 m
kouřmo

TAF: EDQM 201400Z 2015/2024 09005KT 9000 OVC020 BECMG 2019/2021 4000 BR

Stav a předpovědi počasí z více než 4 000 letišť (zprávy METAR a TAF).

Červené a žluté tečky na mapě představují dostupné meteorologické stanice.

Když kurzor umístíte na tečku, zobrazí se název stanice.

Pak kliknutím zobrazíte stav a předpověď počasí.

Chcete-li změnit mapu, kliknutím na zelené tlačítko se znaménkem +mapu přiblížíte, kliknutím na zelené tlačítko se znaménkem – mapu oddálíte a kliknutím na zelené šipky přejdete na sousední mapy.


METAR-TAF: